sensor_id;sensor_type;location;lat;lon;timestamp;temperature;humidity
16408;DHT22;8313;49.894;8.084;2023-09-08T00:02:08;21.10;99.90
16408;DHT22;8313;49.894;8.084;2023-09-08T00:04:34;21.10;99.90
16408;DHT22;8313;49.894;8.084;2023-09-08T00:07:00;21.00;99.90
16408;DHT22;8313;49.894;8.084;2023-09-08T00:09:26;21.00;99.90
16408;DHT22;8313;49.894;8.084;2023-09-08T00:11:51;21.00;99.90
16408;DHT22;8313;49.894;8.084;2023-09-08T00:14:18;21.00;99.90
16408;DHT22;8313;49.894;8.084;2023-09-08T00:16:43;21.00;99.90
16408;DHT22;8313;49.894;8.084;2023-09-08T00:19:10;21.00;99.90
16408;DHT22;8313;49.894;8.084;2023-09-08T00:21:36;20.80;99.90
16408;DHT22;8313;49.894;8.084;2023-09-08T00:24:02;20.80;99.90
16408;DHT22;8313;49.894;8.084;2023-09-08T00:26:29;20.90;99.90
16408;DHT22;8313;49.894;8.084;2023-09-08T00:28:55;20.80;99.90
16408;DHT22;8313;49.894;8.084;2023-09-08T00:31:21;20.80;99.90
16408;DHT22;8313;49.894;8.084;2023-09-08T00:33:46;20.80;99.90
16408;DHT22;8313;49.894;8.084;2023-09-08T00:36:12;20.80;99.90
16408;DHT22;8313;49.894;8.084;2023-09-08T00:38:38;20.80;99.90
16408;DHT22;8313;49.894;8.084;2023-09-08T00:41:07;20.80;99.90
16408;DHT22;8313;49.894;8.084;2023-09-08T00:43:33;20.80;99.90
16408;DHT22;8313;49.894;8.084;2023-09-08T00:45:58;20.70;99.90
16408;DHT22;8313;49.894;8.084;2023-09-08T00:48:26;20.70;99.90
16408;DHT22;8313;49.894;8.084;2023-09-08T00:50:52;20.60;99.90
16408;DHT22;8313;49.894;8.084;2023-09-08T00:53:18;20.50;99.90
16408;DHT22;8313;49.894;8.084;2023-09-08T00:55:44;20.40;99.90
16408;DHT22;8313;49.894;8.084;2023-09-08T00:58:11;20.40;99.90
16408;DHT22;8313;49.894;8.084;2023-09-08T01:00:37;20.40;99.90
16408;DHT22;8313;49.894;8.084;2023-09-08T01:03:03;20.50;99.90
16408;DHT22;8313;49.894;8.084;2023-09-08T01:05:29;20.40;99.90
16408;DHT22;8313;49.894;8.084;2023-09-08T01:07:56;20.40;99.90
16408;DHT22;8313;49.894;8.084;2023-09-08T01:10:23;20.40;99.90
16408;DHT22;8313;49.894;8.084;2023-09-08T01:12:49;20.50;99.90
16408;DHT22;8313;49.894;8.084;2023-09-08T01:15:14;20.40;99.90
16408;DHT22;8313;49.894;8.084;2023-09-08T01:17:40;20.40;99.90
16408;DHT22;8313;49.894;8.084;2023-09-08T01:25:29;20.30;99.90
16408;DHT22;8313;49.894;8.084;2023-09-08T01:27:57;20.30;99.90
16408;DHT22;8313;49.894;8.084;2023-09-08T01:30:26;20.30;99.90
16408;DHT22;8313;49.894;8.084;2023-09-08T01:32:54;20.30;99.90
16408;DHT22;8313;49.894;8.084;2023-09-08T01:35:21;20.20;99.90
16408;DHT22;8313;49.894;8.084;2023-09-08T01:37:48;20.20;99.90
16408;DHT22;8313;49.894;8.084;2023-09-08T01:40:15;20.10;99.90
16408;DHT22;8313;49.894;8.084;2023-09-08T01:42:41;20.10;99.90
16408;DHT22;8313;49.894;8.084;2023-09-08T01:45:07;20.00;99.90
16408;DHT22;8313;49.894;8.084;2023-09-08T01:47:34;19.90;99.90
16408;DHT22;8313;49.894;8.084;2023-09-08T01:50:00;19.90;99.90
16408;DHT22;8313;49.894;8.084;2023-09-08T01:52:25;19.90;99.90
16408;DHT22;8313;49.894;8.084;2023-09-08T01:54:51;19.80;99.90
16408;DHT22;8313;49.894;8.084;2023-09-08T01:57:18;19.70;99.90
16408;DHT22;8313;49.894;8.084;2023-09-08T01:59:44;19.80;99.90
16408;DHT22;8313;49.894;8.084;2023-09-08T02:02:11;19.80;99.90
16408;DHT22;8313;49.894;8.084;2023-09-08T02:04:37;19.80;99.90
16408;DHT22;8313;49.894;8.084;2023-09-08T02:07:04;19.80;99.90
16408;DHT22;8313;49.894;8.084;2023-09-08T02:09:31;19.80;99.90
16408;DHT22;8313;49.894;8.084;2023-09-08T02:11:57;19.70;99.90
16408;DHT22;8313;49.894;8.084;2023-09-08T02:14:23;19.70;99.90
16408;DHT22;8313;49.894;8.084;2023-09-08T02:16:49;19.70;99.90
16408;DHT22;8313;49.894;8.084;2023-09-08T02:19:14;19.60;99.90
16408;DHT22;8313;49.894;8.084;2023-09-08T02:21:41;19.50;99.90
16408;DHT22;8313;49.894;8.084;2023-09-08T02:24:07;19.40;99.90
16408;DHT22;8313;49.894;8.084;2023-09-08T02:26:33;19.40;99.90
16408;DHT22;8313;49.894;8.084;2023-09-08T02:29:00;19.40;99.90
16408;DHT22;8313;49.894;8.084;2023-09-08T02:31:28;19.40;99.90
16408;DHT22;8313;49.894;8.084;2023-09-08T02:33:55;19.40;99.90
16408;DHT22;8313;49.894;8.084;2023-09-08T02:36:21;19.50;99.90
16408;DHT22;8313;49.894;8.084;2023-09-08T02:38:55;19.40;99.90
16408;DHT22;8313;49.894;8.084;2023-09-08T02:41:22;19.30;99.90
16408;DHT22;8313;49.894;8.084;2023-09-08T02:43:48;19.30;99.90
16408;DHT22;8313;49.894;8.084;2023-09-08T02:46:14;19.30;99.90
16408;DHT22;8313;49.894;8.084;2023-09-08T02:48:40;19.30;99.90
16408;DHT22;8313;49.894;8.084;2023-09-08T02:51:06;19.30;99.90
16408;DHT22;8313;49.894;8.084;2023-09-08T02:53:32;19.30;99.90
16408;DHT22;8313;49.894;8.084;2023-09-08T02:55:58;19.30;99.90
16408;DHT22;8313;49.894;8.084;2023-09-08T02:58:25;19.40;99.90
16408;DHT22;8313;49.894;8.084;2023-09-08T03:00:51;19.40;99.90
16408;DHT22;8313;49.894;8.084;2023-09-08T03:03:18;19.40;99.90
16408;DHT22;8313;49.894;8.084;2023-09-08T03:05:44;19.40;99.90
16408;DHT22;8313;49.894;8.084;2023-09-08T03:08:11;19.40;99.90
16408;DHT22;8313;49.894;8.084;2023-09-08T03:10:36;19.40;99.90
16408;DHT22;8313;49.894;8.084;2023-09-08T03:13:06;19.30;99.90
16408;DHT22;8313;49.894;8.084;2023-09-08T03:15:31;19.30;99.90
16408;DHT22;8313;49.894;8.084;2023-09-08T03:17:58;19.20;99.90
16408;DHT22;8313;49.894;8.084;2023-09-08T03:20:25;19.20;99.90
16408;DHT22;8313;49.894;8.084;2023-09-08T03:22:55;19.00;99.90
16408;DHT22;8313;49.894;8.084;2023-09-08T03:25:21;19.00;99.90
16408;DHT22;8313;49.894;8.084;2023-09-08T03:27:46;19.10;99.90
16408;DHT22;8313;49.894;8.084;2023-09-08T03:30:12;19.10;99.90
16408;DHT22;8313;49.894;8.084;2023-09-08T03:32:38;19.10;99.90
16408;DHT22;8313;49.894;8.084;2023-09-08T03:35:05;19.10;99.90
16408;DHT22;8313;49.894;8.084;2023-09-08T03:37:35;19.10;99.90
16408;DHT22;8313;49.894;8.084;2023-09-08T03:40:01;19.10;99.90
16408;DHT22;8313;49.894;8.084;2023-09-08T03:42:27;19.10;99.90
16408;DHT22;8313;49.894;8.084;2023-09-08T03:44:52;19.10;99.90
16408;DHT22;8313;49.894;8.084;2023-09-08T03:47:18;19.10;99.90
16408;DHT22;8313;49.894;8.084;2023-09-08T03:49:44;19.10;99.90
16408;DHT22;8313;49.894;8.084;2023-09-08T03:52:09;19.10;99.90
16408;DHT22;8313;49.894;8.084;2023-09-08T03:54:35;19.10;99.90
16408;DHT22;8313;49.894;8.084;2023-09-08T03:57:01;19.10;99.90
16408;DHT22;8313;49.894;8.084;2023-09-08T03:59:27;19.00;99.90
16408;DHT22;8313;49.894;8.084;2023-09-08T04:01:52;19.00;99.90
16408;DHT22;8313;49.894;8.084;2023-09-08T04:04:18;19.00;99.90
16408;DHT22;8313;49.894;8.084;2023-09-08T04:06:45;18.90;99.90
16408;DHT22;8313;49.894;8.084;2023-09-08T04:09:11;18.90;99.90
16408;DHT22;8313;49.894;8.084;2023-09-08T04:11:37;18.90;99.90
16408;DHT22;8313;49.894;8.084;2023-09-08T04:14:03;19.00;99.90
16408;DHT22;8313;49.894;8.084;2023-09-08T04:16:29;18.90;99.90
16408;DHT22;8313;49.894;8.084;2023-09-08T04:18:54;18.90;99.90
16408;DHT22;8313;49.894;8.084;2023-09-08T04:21:20;18.80;99.90
16408;DHT22;8313;49.894;8.084;2023-09-08T04:23:46;18.80;99.90
16408;DHT22;8313;49.894;8.084;2023-09-08T04:26:12;18.80;99.90
16408;DHT22;8313;49.894;8.084;2023-09-08T04:28:38;18.80;99.90
16408;DHT22;8313;49.894;8.084;2023-09-08T04:31:04;18.80;99.90
16408;DHT22;8313;49.894;8.084;2023-09-08T04:33:30;18.80;99.90
16408;DHT22;8313;49.894;8.084;2023-09-08T04:35:56;18.70;99.90
16408;DHT22;8313;49.894;8.084;2023-09-08T04:38:22;18.70;99.90
16408;DHT22;8313;49.894;8.084;2023-09-08T04:40:47;18.70;99.90
16408;DHT22;8313;49.894;8.084;2023-09-08T04:43:14;18.70;99.90
16408;DHT22;8313;49.894;8.084;2023-09-08T04:45:40;18.60;99.90
16408;DHT22;8313;49.894;8.084;2023-09-08T04:48:06;18.60;99.90
16408;DHT22;8313;49.894;8.084;2023-09-08T04:50:32;18.60;99.90
16408;DHT22;8313;49.894;8.084;2023-09-08T04:52:58;18.60;99.90
16408;DHT22;8313;49.894;8.084;2023-09-08T04:55:25;18.60;99.90
16408;DHT22;8313;49.894;8.084;2023-09-08T04:57:50;18.60;99.90
16408;DHT22;8313;49.894;8.084;2023-09-08T05:00:16;18.60;99.90
16408;DHT22;8313;49.894;8.084;2023-09-08T05:02:43;18.50;99.90
16408;DHT22;8313;49.894;8.084;2023-09-08T05:05:10;18.50;99.90
16408;DHT22;8313;49.894;8.084;2023-09-08T05:07:35;18.50;99.90
16408;DHT22;8313;49.894;8.084;2023-09-08T05:10:01;18.40;99.90
16408;DHT22;8313;49.894;8.084;2023-09-08T05:12:30;18.40;99.90
16408;DHT22;8313;49.894;8.084;2023-09-08T05:14:56;18.40;99.90
16408;DHT22;8313;49.894;8.084;2023-09-08T05:17:26;18.50;99.90
16408;DHT22;8313;49.894;8.084;2023-09-08T05:19:51;18.50;99.90
16408;DHT22;8313;49.894;8.084;2023-09-08T05:22:17;18.50;99.90
16408;DHT22;8313;49.894;8.084;2023-09-08T05:24:43;18.40;99.90
16408;DHT22;8313;49.894;8.084;2023-09-08T05:27:09;18.40;99.90
16408;DHT22;8313;49.894;8.084;2023-09-08T05:29:35;18.50;99.90
16408;DHT22;8313;49.894;8.084;2023-09-08T05:32:00;18.40;99.90
16408;DHT22;8313;49.894;8.084;2023-09-08T05:34:26;18.40;99.90
16408;DHT22;8313;49.894;8.084;2023-09-08T05:36:52;18.40;99.90
16408;DHT22;8313;49.894;8.084;2023-09-08T05:39:17;18.40;99.90
16408;DHT22;8313;49.894;8.084;2023-09-08T05:41:45;18.40;99.90
16408;DHT22;8313;49.894;8.084;2023-09-08T05:44:11;18.50;99.90
16408;DHT22;8313;49.894;8.084;2023-09-08T05:46:37;18.50;99.90
16408;DHT22;8313;49.894;8.084;2023-09-08T05:49:02;18.50;99.90
16408;DHT22;8313;49.894;8.084;2023-09-08T05:51:29;18.50;99.90
16408;DHT22;8313;49.894;8.084;2023-09-08T05:53:56;18.40;99.90
16408;DHT22;8313;49.894;8.084;2023-09-08T05:56:24;18.40;99.90
16408;DHT22;8313;49.894;8.084;2023-09-08T05:58:50;18.50;99.90
16408;DHT22;8313;49.894;8.084;2023-09-08T06:01:16;18.40;99.90
16408;DHT22;8313;49.894;8.084;2023-09-08T06:03:42;18.50;99.90
16408;DHT22;8313;49.894;8.084;2023-09-08T06:06:08;18.50;99.90
16408;DHT22;8313;49.894;8.084;2023-09-08T06:08:33;18.50;99.90
16408;DHT22;8313;49.894;8.084;2023-09-08T06:10:59;18.40;99.90
16408;DHT22;8313;49.894;8.084;2023-09-08T06:13:25;18.50;99.90
16408;DHT22;8313;49.894;8.084;2023-09-08T06:15:52;18.50;99.90
16408;DHT22;8313;49.894;8.084;2023-09-08T06:18:17;18.50;99.90
16408;DHT22;8313;49.894;8.084;2023-09-08T06:20:47;18.50;99.90
16408;DHT22;8313;49.894;8.084;2023-09-08T06:23:13;18.50;99.90
16408;DHT22;8313;49.894;8.084;2023-09-08T06:25:40;18.50;99.90
16408;DHT22;8313;49.894;8.084;2023-09-08T06:28:06;18.60;99.90
16408;DHT22;8313;49.894;8.084;2023-09-08T06:30:33;18.60;99.90
16408;DHT22;8313;49.894;8.084;2023-09-08T06:32:59;18.60;99.90
16408;DHT22;8313;49.894;8.084;2023-09-08T06:35:26;18.70;99.90
16408;DHT22;8313;49.894;8.084;2023-09-08T06:37:53;18.70;99.90
16408;DHT22;8313;49.894;8.084;2023-09-08T06:40:19;18.80;99.90
16408;DHT22;8313;49.894;8.084;2023-09-08T06:42:45;18.80;99.90
16408;DHT22;8313;49.894;8.084;2023-09-08T06:45:18;18.90;99.90
16408;DHT22;8313;49.894;8.084;2023-09-08T06:47:44;18.90;99.90
16408;DHT22;8313;49.894;8.084;2023-09-08T06:50:10;19.00;99.90
16408;DHT22;8313;49.894;8.084;2023-09-08T06:52:36;19.00;99.90
16408;DHT22;8313;49.894;8.084;2023-09-08T06:55:02;19.10;99.90
16408;DHT22;8313;49.894;8.084;2023-09-08T06:57:28;19.20;99.90
16408;DHT22;8313;49.894;8.084;2023-09-08T06:59:54;19.30;99.90
16408;DHT22;8313;49.894;8.084;2023-09-08T07:02:20;19.30;99.90
16408;DHT22;8313;49.894;8.084;2023-09-08T07:04:46;19.40;99.90
16408;DHT22;8313;49.894;8.084;2023-09-08T07:07:12;19.40;99.90
16408;DHT22;8313;49.894;8.084;2023-09-08T07:09:40;19.40;99.90
16408;DHT22;8313;49.894;8.084;2023-09-08T07:12:06;19.50;99.90
16408;DHT22;8313;49.894;8.084;2023-09-08T07:14:32;19.60;99.90
16408;DHT22;8313;49.894;8.084;2023-09-08T07:16:58;19.60;99.90
16408;DHT22;8313;49.894;8.084;2023-09-08T07:19:26;19.70;99.90
16408;DHT22;8313;49.894;8.084;2023-09-08T07:21:53;19.80;99.90
16408;DHT22;8313;49.894;8.084;2023-09-08T07:24:20;19.80;99.90
16408;DHT22;8313;49.894;8.084;2023-09-08T07:26:45;19.90;99.90
16408;DHT22;8313;49.894;8.084;2023-09-08T07:29:12;20.00;99.90
16408;DHT22;8313;49.894;8.084;2023-09-08T07:31:37;20.00;99.90
16408;DHT22;8313;49.894;8.084;2023-09-08T07:34:04;20.10;99.90
16408;DHT22;8313;49.894;8.084;2023-09-08T07:36:30;20.30;99.90
16408;DHT22;8313;49.894;8.084;2023-09-08T07:38:55;20.40;99.90
16408;DHT22;8313;49.894;8.084;2023-09-08T07:41:21;20.40;99.90
16408;DHT22;8313;49.894;8.084;2023-09-08T07:43:47;20.50;99.90
16408;DHT22;8313;49.894;8.084;2023-09-08T07:46:16;20.60;99.90
16408;DHT22;8313;49.894;8.084;2023-09-08T07:48:41;20.70;99.90
16408;DHT22;8313;49.894;8.084;2023-09-08T07:51:07;20.80;99.90
16408;DHT22;8313;49.894;8.084;2023-09-08T07:53:33;20.90;99.90
16408;DHT22;8313;49.894;8.084;2023-09-08T07:55:58;21.00;99.90
16408;DHT22;8313;49.894;8.084;2023-09-08T07:58:24;21.10;99.90
16408;DHT22;8313;49.894;8.084;2023-09-08T08:00:50;21.20;99.90
16408;DHT22;8313;49.894;8.084;2023-09-08T08:03:15;21.30;99.90
16408;DHT22;8313;49.894;8.084;2023-09-08T08:05:41;21.50;99.90
16408;DHT22;8313;49.894;8.084;2023-09-08T08:08:07;21.60;99.90
16408;DHT22;8313;49.894;8.084;2023-09-08T08:10:35;21.70;99.90
16408;DHT22;8313;49.894;8.084;2023-09-08T08:13:00;21.80;99.90
16408;DHT22;8313;49.894;8.084;2023-09-08T08:15:37;21.80;99.90
16408;DHT22;8313;49.894;8.084;2023-09-08T08:18:04;22.00;99.90
16408;DHT22;8313;49.894;8.084;2023-09-08T08:20:30;22.10;99.90
16408;DHT22;8313;49.894;8.084;2023-09-08T08:23:00;22.20;99.90
16408;DHT22;8313;49.894;8.084;2023-09-08T08:25:26;22.30;99.90
16408;DHT22;8313;49.894;8.084;2023-09-08T08:27:52;22.40;99.90
16408;DHT22;8313;49.894;8.084;2023-09-08T08:30:18;22.70;99.90
16408;DHT22;8313;49.894;8.084;2023-09-08T08:32:43;22.80;99.90
16408;DHT22;8313;49.894;8.084;2023-09-08T08:35:09;22.80;99.90
16408;DHT22;8313;49.894;8.084;2023-09-08T08:37:35;22.80;99.90
16408;DHT22;8313;49.894;8.084;2023-09-08T08:40:01;22.80;99.90
16408;DHT22;8313;49.894;8.084;2023-09-08T08:42:31;22.90;99.90
16408;DHT22;8313;49.894;8.084;2023-09-08T08:44:58;23.10;99.90
16408;DHT22;8313;49.894;8.084;2023-09-08T08:47:25;23.30;99.90
16408;DHT22;8313;49.894;8.084;2023-09-08T08:49:52;23.40;99.90
16408;DHT22;8313;49.894;8.084;2023-09-08T08:52:18;23.50;99.90
16408;DHT22;8313;49.894;8.084;2023-09-08T08:54:45;23.60;99.90
16408;DHT22;8313;49.894;8.084;2023-09-08T08:57:14;23.50;99.90
16408;DHT22;8313;49.894;8.084;2023-09-08T08:59:40;23.50;99.90
16408;DHT22;8313;49.894;8.084;2023-09-08T09:02:10;23.60;99.90
16408;DHT22;8313;49.894;8.084;2023-09-08T09:04:37;23.70;99.90
16408;DHT22;8313;49.894;8.084;2023-09-08T09:07:04;23.80;99.90
16408;DHT22;8313;49.894;8.084;2023-09-08T09:09:31;23.90;99.90
16408;DHT22;8313;49.894;8.084;2023-09-08T09:11:56;24.10;99.90
16408;DHT22;8313;49.894;8.084;2023-09-08T09:14:22;24.20;99.90
16408;DHT22;8313;49.894;8.084;2023-09-08T09:16:48;24.20;99.90
16408;DHT22;8313;49.894;8.084;2023-09-08T09:19:22;24.40;99.90
16408;DHT22;8313;49.894;8.084;2023-09-08T09:21:55;24.60;99.90
16408;DHT22;8313;49.894;8.084;2023-09-08T09:24:33;24.60;99.90
16408;DHT22;8313;49.894;8.084;2023-09-08T09:27:02;24.80;99.90
16408;DHT22;8313;49.894;8.084;2023-09-08T09:29:29;24.80;99.90
16408;DHT22;8313;49.894;8.084;2023-09-08T09:32:06;24.90;99.90
16408;DHT22;8313;49.894;8.084;2023-09-08T09:34:34;25.10;99.90
16408;DHT22;8313;49.894;8.084;2023-09-08T09:37:00;25.30;99.90
16408;DHT22;8313;49.894;8.084;2023-09-08T09:39:26;25.30;99.90
16408;DHT22;8313;49.894;8.084;2023-09-08T09:41:56;25.70;99.90
16408;DHT22;8313;49.894;8.084;2023-09-08T09:44:23;25.70;99.90
16408;DHT22;8313;49.894;8.084;2023-09-08T09:46:52;25.80;99.90
16408;DHT22;8313;49.894;8.084;2023-09-08T09:49:18;26.00;99.90
16408;DHT22;8313;49.894;8.084;2023-09-08T09:51:45;26.00;99.90
16408;DHT22;8313;49.894;8.084;2023-09-08T09:54:13;25.90;99.90
16408;DHT22;8313;49.894;8.084;2023-09-08T09:56:39;25.80;99.90
16408;DHT22;8313;49.894;8.084;2023-09-08T09:59:10;25.80;99.90
16408;DHT22;8313;49.894;8.084;2023-09-08T10:01:37;26.00;99.90
16408;DHT22;8313;49.894;8.084;2023-09-08T10:04:04;26.30;99.90
16408;DHT22;8313;49.894;8.084;2023-09-08T10:06:32;26.50;99.90
16408;DHT22;8313;49.894;8.084;2023-09-08T10:09:03;26.50;99.90
16408;DHT22;8313;49.894;8.084;2023-09-08T10:11:35;26.50;99.90
16408;DHT22;8313;49.894;8.084;2023-09-08T10:14:04;26.50;99.90
16408;DHT22;8313;49.894;8.084;2023-09-08T10:16:35;26.60;99.90
16408;DHT22;8313;49.894;8.084;2023-09-08T10:19:07;26.60;99.90
16408;DHT22;8313;49.894;8.084;2023-09-08T10:21:36;26.90;99.90
16408;DHT22;8313;49.894;8.084;2023-09-08T10:24:21;27.00;99.90
16408;DHT22;8313;49.894;8.084;2023-09-08T10:26:57;26.90;99.90
16408;DHT22;8313;49.894;8.084;2023-09-08T10:29:25;27.00;99.90
16408;DHT22;8313;49.894;8.084;2023-09-08T10:31:51;27.10;99.90
16408;DHT22;8313;49.894;8.084;2023-09-08T10:34:18;27.30;99.90
16408;DHT22;8313;49.894;8.084;2023-09-08T10:36:44;27.30;99.90
16408;DHT22;8313;49.894;8.084;2023-09-08T10:42:20;27.20;99.90
16408;DHT22;8313;49.894;8.084;2023-09-08T10:47:41;27.30;99.90
16408;DHT22;8313;49.894;8.084;2023-09-08T10:50:26;27.50;99.90
16408;DHT22;8313;49.894;8.084;2023-09-08T10:53:06;27.80;99.90
16408;DHT22;8313;49.894;8.084;2023-09-08T10:55:41;28.10;99.90
16408;DHT22;8313;49.894;8.084;2023-09-08T10:58:11;28.20;99.90
16408;DHT22;8313;49.894;8.084;2023-09-08T11:00:47;28.40;99.90
16408;DHT22;8313;49.894;8.084;2023-09-08T11:06:06;28.60;99.90
16408;DHT22;8313;49.894;8.084;2023-09-08T11:08:43;28.80;99.90
16408;DHT22;8313;49.894;8.084;2023-09-08T11:11:13;29.00;99.90
16408;DHT22;8313;49.894;8.084;2023-09-08T11:13:39;28.80;99.90
16408;DHT22;8313;49.894;8.084;2023-09-08T11:16:06;28.70;99.90
16408;DHT22;8313;49.894;8.084;2023-09-08T11:18:32;28.70;99.90
16408;DHT22;8313;49.894;8.084;2023-09-08T11:21:02;28.90;99.90
16408;DHT22;8313;49.894;8.084;2023-09-08T11:23:29;29.10;99.90
16408;DHT22;8313;49.894;8.084;2023-09-08T11:25:55;29.40;99.90
16408;DHT22;8313;49.894;8.084;2023-09-08T11:28:22;29.50;99.90
16408;DHT22;8313;49.894;8.084;2023-09-08T11:30:48;29.60;99.60
16408;DHT22;8313;49.894;8.084;2023-09-08T11:33:18;29.70;99.70
16408;DHT22;8313;49.894;8.084;2023-09-08T11:35:47;29.60;99.30
16408;DHT22;8313;49.894;8.084;2023-09-08T11:38:14;29.70;99.40
16408;DHT22;8313;49.894;8.084;2023-09-08T11:40:40;29.80;99.00
16408;DHT22;8313;49.894;8.084;2023-09-08T11:43:07;29.60;99.00
16408;DHT22;8313;49.894;8.084;2023-09-08T11:45:36;29.70;99.50
16408;DHT22;8313;49.894;8.084;2023-09-08T11:48:03;29.80;99.40
16408;DHT22;8313;49.894;8.084;2023-09-08T11:50:30;29.60;98.70
16408;DHT22;8313;49.894;8.084;2023-09-08T11:52:56;29.60;99.10
16408;DHT22;8313;49.894;8.084;2023-09-08T11:55:24;29.60;98.40
16408;DHT22;8313;49.894;8.084;2023-09-08T11:57:53;29.70;99.30
16408;DHT22;8313;49.894;8.084;2023-09-08T12:00:28;29.80;98.70
16408;DHT22;8313;49.894;8.084;2023-09-08T12:02:55;29.80;98.50
16408;DHT22;8313;49.894;8.084;2023-09-08T12:05:25;29.60;98.80
16408;DHT22;8313;49.894;8.084;2023-09-08T12:07:52;29.50;98.80
16408;DHT22;8313;49.894;8.084;2023-09-08T12:10:18;29.50;98.60
16408;DHT22;8313;49.894;8.084;2023-09-08T12:12:46;29.60;98.70
16408;DHT22;8313;49.894;8.084;2023-09-08T12:15:28;29.70;98.60
16408;DHT22;8313;49.894;8.084;2023-09-08T12:17:54;29.90;98.60
16408;DHT22;8313;49.894;8.084;2023-09-08T12:20:20;30.30;98.90
16408;DHT22;8313;49.894;8.084;2023-09-08T12:22:49;30.50;98.30
16408;DHT22;8313;49.894;8.084;2023-09-08T12:25:15;30.40;98.00
16408;DHT22;8313;49.894;8.084;2023-09-08T12:27:42;30.60;97.90
16408;DHT22;8313;49.894;8.084;2023-09-08T12:30:08;30.70;98.20
16408;DHT22;8313;49.894;8.084;2023-09-08T12:32:35;30.50;97.60
16408;DHT22;8313;49.894;8.084;2023-09-08T12:35:03;30.30;97.40
16408;DHT22;8313;49.894;8.084;2023-09-08T12:37:30;30.50;98.00
16408;DHT22;8313;49.894;8.084;2023-09-08T12:39:58;30.90;97.30
16408;DHT22;8313;49.894;8.084;2023-09-08T12:42:26;31.00;97.40
16408;DHT22;8313;49.894;8.084;2023-09-08T12:44:54;31.00;97.60
16408;DHT22;8313;49.894;8.084;2023-09-08T12:47:20;31.20;97.10
16408;DHT22;8313;49.894;8.084;2023-09-08T12:49:46;31.50;96.60
16408;DHT22;8313;49.894;8.084;2023-09-08T12:52:11;31.80;96.50
16408;DHT22;8313;49.894;8.084;2023-09-08T12:54:37;31.70;96.40
16408;DHT22;8313;49.894;8.084;2023-09-08T12:57:03;31.30;96.40
16408;DHT22;8313;49.894;8.084;2023-09-08T12:59:29;31.00;96.70
16408;DHT22;8313;49.894;8.084;2023-09-08T13:01:55;31.10;96.30
16408;DHT22;8313;49.894;8.084;2023-09-08T13:04:20;31.20;96.70
16408;DHT22;8313;49.894;8.084;2023-09-08T13:06:48;31.00;96.00
16408;DHT22;8313;49.894;8.084;2023-09-08T13:09:15;30.80;95.80
16408;DHT22;8313;49.894;8.084;2023-09-08T13:11:41;30.90;96.00
16408;DHT22;8313;49.894;8.084;2023-09-08T13:14:07;31.00;96.40
16408;DHT22;8313;49.894;8.084;2023-09-08T13:16:33;31.30;96.10
16408;DHT22;8313;49.894;8.084;2023-09-08T13:18:59;31.40;94.90
16408;DHT22;8313;49.894;8.084;2023-09-08T13:21:25;31.50;95.30
16408;DHT22;8313;49.894;8.084;2023-09-08T13:23:50;31.60;94.70
16408;DHT22;8313;49.894;8.084;2023-09-08T13:26:16;31.40;94.70
16408;DHT22;8313;49.894;8.084;2023-09-08T13:28:42;31.80;95.30
16408;DHT22;8313;49.894;8.084;2023-09-08T13:31:08;31.80;95.60
16408;DHT22;8313;49.894;8.084;2023-09-08T13:33:34;31.80;95.60
16408;DHT22;8313;49.894;8.084;2023-09-08T13:35:59;31.50;95.10
16408;DHT22;8313;49.894;8.084;2023-09-08T13:38:25;31.40;95.70
16408;DHT22;8313;49.894;8.084;2023-09-08T13:40:51;31.10;95.50
16408;DHT22;8313;49.894;8.084;2023-09-08T13:43:18;30.90;94.50
16408;DHT22;8313;49.894;8.084;2023-09-08T13:45:43;31.00;94.80
16408;DHT22;8313;49.894;8.084;2023-09-08T13:48:09;31.70;94.60
16408;DHT22;8313;49.894;8.084;2023-09-08T13:50:37;32.00;94.40
16408;DHT22;8313;49.894;8.084;2023-09-08T13:53:03;32.00;95.00
16408;DHT22;8313;49.894;8.084;2023-09-08T13:55:28;32.10;94.40
16408;DHT22;8313;49.894;8.084;2023-09-08T13:57:54;31.60;94.20
16408;DHT22;8313;49.894;8.084;2023-09-08T14:00:20;31.30;94.70
16408;DHT22;8313;49.894;8.084;2023-09-08T14:02:45;31.30;95.10
16408;DHT22;8313;49.894;8.084;2023-09-08T14:05:11;31.50;94.80
16408;DHT22;8313;49.894;8.084;2023-09-08T14:07:37;31.70;94.00
16408;DHT22;8313;49.894;8.084;2023-09-08T14:10:03;31.90;94.30
16408;DHT22;8313;49.894;8.084;2023-09-08T14:12:33;32.30;93.80
16408;DHT22;8313;49.894;8.084;2023-09-08T14:14:58;32.50;93.80
16408;DHT22;8313;49.894;8.084;2023-09-08T14:17:25;32.40;93.30
16408;DHT22;8313;49.894;8.084;2023-09-08T14:19:50;32.50;93.00
16408;DHT22;8313;49.894;8.084;2023-09-08T14:22:16;31.80;93.10
16408;DHT22;8313;49.894;8.084;2023-09-08T14:24:42;31.40;93.70
16408;DHT22;8313;49.894;8.084;2023-09-08T14:27:07;31.50;94.00
16408;DHT22;8313;49.894;8.084;2023-09-08T14:29:34;32.00;93.70
16408;DHT22;8313;49.894;8.084;2023-09-08T14:31:59;32.30;93.50
16408;DHT22;8313;49.894;8.084;2023-09-08T14:34:25;32.60;92.80
16408;DHT22;8313;49.894;8.084;2023-09-08T14:36:51;32.50;93.30
16408;DHT22;8313;49.894;8.084;2023-09-08T14:39:16;32.60;92.70
16408;DHT22;8313;49.894;8.084;2023-09-08T14:41:45;32.70;92.70
16408;DHT22;8313;49.894;8.084;2023-09-08T14:44:10;32.80;92.30
16408;DHT22;8313;49.894;8.084;2023-09-08T14:46:36;32.80;92.60
16408;DHT22;8313;49.894;8.084;2023-09-08T14:49:01;32.70;92.10
16408;DHT22;8313;49.894;8.084;2023-09-08T14:51:28;32.70;92.60
16408;DHT22;8313;49.894;8.084;2023-09-08T14:53:54;32.80;92.20
16408;DHT22;8313;49.894;8.084;2023-09-08T14:56:19;32.90;92.30
16408;DHT22;8313;49.894;8.084;2023-09-08T14:58:45;32.80;92.00
16408;DHT22;8313;49.894;8.084;2023-09-08T15:01:11;32.80;92.50
16408;DHT22;8313;49.894;8.084;2023-09-08T15:03:40;32.70;92.60
16408;DHT22;8313;49.894;8.084;2023-09-08T15:06:05;32.70;92.20
16408;DHT22;8313;49.894;8.084;2023-09-08T15:08:33;32.80;92.40
16408;DHT22;8313;49.894;8.084;2023-09-08T15:10:58;32.80;92.40
16408;DHT22;8313;49.894;8.084;2023-09-08T15:13:24;32.50;92.50
16408;DHT22;8313;49.894;8.084;2023-09-08T15:15:50;32.70;92.50
16408;DHT22;8313;49.894;8.084;2023-09-08T15:18:16;32.60;92.50
16408;DHT22;8313;49.894;8.084;2023-09-08T15:20:50;32.80;91.70
16408;DHT22;8313;49.894;8.084;2023-09-08T15:23:16;32.70;92.50
16408;DHT22;8313;49.894;8.084;2023-09-08T15:25:42;32.50;92.10
16408;DHT22;8313;49.894;8.084;2023-09-08T15:28:08;32.50;92.10
16408;DHT22;8313;49.894;8.084;2023-09-08T15:30:33;32.70;91.80
16408;DHT22;8313;49.894;8.084;2023-09-08T15:33:03;32.80;91.50
16408;DHT22;8313;49.894;8.084;2023-09-08T15:35:31;32.80;91.20
16408;DHT22;8313;49.894;8.084;2023-09-08T15:37:57;32.60;91.60
16408;DHT22;8313;49.894;8.084;2023-09-08T15:40:22;32.70;91.50
16408;DHT22;8313;49.894;8.084;2023-09-08T15:42:48;32.70;91.30
16408;DHT22;8313;49.894;8.084;2023-09-08T15:45:15;32.70;91.60
16408;DHT22;8313;49.894;8.084;2023-09-08T15:47:41;32.60;91.50
16408;DHT22;8313;49.894;8.084;2023-09-08T15:50:07;32.50;91.20
16408;DHT22;8313;49.894;8.084;2023-09-08T15:52:34;32.40;91.70
16408;DHT22;8313;49.894;8.084;2023-09-08T15:55:01;32.30;91.00
16408;DHT22;8313;49.894;8.084;2023-09-08T15:57:26;32.30;91.50